createdAt,value
2022-09-09T09:32:42.848Z,15808.00
2022-09-09T09:33:42.825Z,16416.00
2022-09-09T09:34:42.804Z,16768.00
2022-09-09T09:44:14.452Z,16544.00
2022-09-09T09:45:14.442Z,16928.00
2022-09-09T09:46:18.034Z,17152.00
2022-09-09T10:31:47.278Z,15176.00
2022-09-09T10:32:47.254Z,15612.00
2022-09-09T10:42:25.798Z,18656.00
2022-09-09T10:43:25.771Z,19104.00
2022-09-09T10:44:25.754Z,17696.00
2022-09-09T10:45:25.745Z,16448.00
2022-09-09T10:51:00.553Z,16832.00
2022-09-09T10:51:43.279Z,16928.00
2022-09-09T10:52:43.269Z,18272.00
2022-09-09T10:53:43.246Z,18976.00
2022-09-09T10:54:43.228Z,19744.00
2022-09-09T10:55:43.234Z,18784.00
2022-09-09T10:56:43.196Z,19264.00
2022-09-09T10:57:43.195Z,19552.00
2022-09-09T10:58:43.183Z,19456.00
2022-09-09T10:59:43.177Z,19008.00
2022-09-09T11:00:43.150Z,18144.00
2022-09-09T11:01:43.209Z,18336.00
2022-09-09T11:02:43.111Z,18016.00
2022-09-09T11:03:51.052Z,17568.00
2022-09-09T11:04:43.095Z,15448.00
2022-09-09T11:05:43.088Z,15488.00
2022-09-09T11:06:43.119Z,14288.00
2022-09-09T11:07:43.044Z,13592.00
2022-09-09T11:08:43.038Z,12004.00
2022-09-09T11:09:43.031Z,12296.00
2022-09-09T11:13:43.130Z,14304.00
2022-09-09T11:14:43.115Z,15124.00
2022-09-09T11:15:43.104Z,16224.00
2022-09-09T11:16:43.181Z,15300.00
2022-09-09T11:17:43.074Z,15264.00
2022-09-09T11:18:43.059Z,15124.00
2022-09-09T11:19:43.036Z,15684.00
2022-09-09T11:20:43.043Z,14852.00
2022-09-09T11:21:43.022Z,15000.00
2022-09-09T11:22:43.027Z,15060.00
2022-09-09T11:23:42.992Z,12584.00
2022-09-09T11:24:42.976Z,12564.00
2022-09-09T11:28:06.059Z,12516.00
2022-09-09T11:29:06.027Z,15552.00
2022-09-09T11:30:06.035Z,18080.00
2022-09-09T11:31:06.077Z,18240.00
2022-09-09T11:32:05.987Z,17632.00
2022-09-09T11:33:05.986Z,16224.00
2022-09-09T11:34:05.957Z,16064.00
2022-09-09T11:35:05.959Z,14184.00
2022-09-09T11:36:07.868Z,16320.00
2022-09-09T11:37:05.935Z,17536.00
2022-09-09T11:38:05.905Z,18688.00
2022-09-09T11:39:05.889Z,18368.00
2022-09-09T11:40:06.003Z,16160.00
2022-09-09T11:41:05.888Z,13088.00
2022-09-09T11:42:05.858Z,12152.00
2022-09-09T11:43:05.841Z,13016.00
2022-09-09T11:44:05.824Z,11600.00
2022-09-09T11:45:05.817Z,10072.00
2022-09-09T11:46:05.862Z,12044.00
2022-09-09T11:47:05.778Z,12520.00
2022-09-09T11:48:05.775Z,13260.00
2022-09-09T11:49:05.754Z,13412.00
2022-09-09T11:50:05.751Z,15340.00
2022-09-09T11:51:05.748Z,14756.00
2022-09-09T11:52:05.714Z,15076.00
2022-09-09T11:53:05.706Z,14344.00
2022-09-09T11:54:05.699Z,15024.00
2022-09-09T11:55:05.698Z,14456.00
2022-09-09T11:56:05.677Z,15776.00
2022-09-09T11:57:05.653Z,16960.00
2022-09-09T11:58:05.642Z,18624.00
2022-09-09T11:59:05.626Z,29248.00
2022-09-09T12:00:05.684Z,47360.00
2022-09-09T12:01:05.616Z,57568.00
2022-09-09T12:02:05.620Z,66208.00
2022-09-09T12:03:05.578Z,57760.00
2022-09-09T12:04:05.613Z,46400.00
2022-09-09T12:05:05.610Z,29856.00
2022-09-09T12:06:06.003Z,18240.00
2022-09-09T12:07:05.532Z,17440.00
2022-09-09T12:08:05.519Z,20256.00
2022-09-09T12:09:05.505Z,15140.00
2022-09-09T12:10:05.520Z,14628.00
2022-09-09T12:11:05.495Z,14288.00
2022-09-09T12:12:05.460Z,14664.00
2022-09-09T12:13:05.459Z,14860.00
2022-09-09T12:14:05.436Z,15600.00
2022-09-09T12:15:05.429Z,17152.00
2022-09-09T12:16:05.428Z,18400.00
2022-09-09T12:17:05.396Z,19136.00
2022-09-09T12:18:05.386Z,20128.00
2022-09-09T12:19:05.372Z,21376.00
2022-09-09T12:20:05.438Z,22976.00
2022-09-09T12:21:05.366Z,23296.00
2022-09-09T12:22:05.334Z,30464.00
2022-09-09T12:23:05.328Z,38304.00
2022-09-09T12:24:05.317Z,73792.00
2022-09-09T12:25:05.294Z,22976.00
2022-09-09T12:26:05.302Z,23328.00
2022-09-09T12:27:05.278Z,23840.00
2022-09-09T12:28:05.262Z,23392.00
2022-09-09T12:29:05.257Z,23296.00
2022-09-09T12:30:05.288Z,18464.00
2022-09-09T12:31:05.300Z,18944.00
2022-09-09T12:32:05.218Z,25664.00
2022-09-09T12:33:05.206Z,18048.00
2022-09-09T12:34:05.184Z,14800.00
2022-09-09T12:44:22.379Z,15368.00
2022-09-09T12:45:22.351Z,18912.00
2022-09-09T12:46:22.390Z,22400.00
2022-09-09T12:47:23.668Z,19136.00
2022-09-09T12:48:22.312Z,18720.00
2022-09-09T13:44:21.434Z,16012.00
2022-09-09T13:45:21.419Z,16224.00
2022-09-09T13:46:21.399Z,15008.00
2022-09-09T13:47:21.386Z,15900.00
2022-09-09T13:48:21.357Z,19360.00
2022-09-09T13:49:21.348Z,60096.00
2022-09-09T13:50:21.339Z,42944.00
2022-09-09T13:51:21.316Z,34592.00
2022-09-09T13:52:21.302Z,22720.00
2022-09-09T13:53:21.276Z,20832.00
2022-09-09T13:54:21.263Z,20576.00
2022-09-09T13:55:21.256Z,53312.00
2022-09-09T13:56:21.236Z,88960.00
2022-09-09T13:57:21.252Z,23936.00
2022-09-09T13:58:21.210Z,47936.00
2022-09-09T13:59:21.196Z,85536.00
2022-09-09T14:00:21.172Z,27968.00
2022-09-09T14:01:21.209Z,83360.00
2022-09-09T14:02:21.189Z,17888.00
2022-09-09T14:10:39.084Z,15456.00
2022-09-09T14:11:39.043Z,15916.00
2022-09-09T14:12:39.043Z,15680.00
2022-09-09T14:18:30.862Z,52416.00
2022-09-09T14:19:30.790Z,18112.00
2022-09-09T14:22:45.695Z,16672.00
2022-09-09T14:23:45.675Z,15964.00
2022-09-09T14:38:03.967Z,50720.00
2022-09-09T14:39:03.940Z,55328.00
2022-09-09T14:40:03.950Z,67680.00
2022-09-09T14:41:03.922Z,65984.00
2022-09-09T14:42:03.896Z,52480.00
2022-09-09T14:43:03.898Z,53312.00
2022-09-09T14:44:03.878Z,31872.00
2022-09-09T14:45:03.867Z,31008.00
2022-09-09T15:04:10.039Z,50272.00
2022-09-09T15:05:10.006Z,55808.00
2022-09-09T15:06:10.013Z,45856.00
2022-09-09T15:07:09.985Z,42208.00
2022-09-09T15:08:09.956Z,23456.00
2022-09-09T15:09:09.962Z,28448.00
2022-09-09T15:10:09.935Z,15748.00
2022-09-09T15:11:09.931Z,15984.00
2022-09-09T15:12:09.951Z,15544.00
2022-09-09T15:13:09.908Z,13980.00
2022-09-09T15:14:09.883Z,13800.00
2022-09-09T15:18:06.517Z,11056.00
2022-09-09T15:41:27.821Z,9100.00
